sensor_id;sensor_type;location;lat;lon;timestamp;temperature;humidity
51739;DHT22;37815;52.692;6.226;2023-07-13T00:04:33;21.60;80.30
51739;DHT22;37815;52.692;6.226;2023-07-13T00:09:34;21.60;80.40
51739;DHT22;37815;52.692;6.226;2023-07-13T00:14:35;21.60;80.50
51739;DHT22;37815;52.692;6.226;2023-07-13T00:19:36;21.60;80.60
51739;DHT22;37815;52.692;6.226;2023-07-13T00:24:36;21.60;80.70
51739;DHT22;37815;52.692;6.226;2023-07-13T00:29:42;21.60;80.70
51739;DHT22;37815;52.692;6.226;2023-07-13T00:34:42;21.50;80.80
51739;DHT22;37815;52.692;6.226;2023-07-13T00:39:43;21.50;80.80
51739;DHT22;37815;52.692;6.226;2023-07-13T00:50:07;21.50;81.00
51739;DHT22;37815;52.692;6.226;2023-07-13T00:55:09;21.40;81.00
51739;DHT22;37815;52.692;6.226;2023-07-13T01:00:12;21.40;81.00
51739;DHT22;37815;52.692;6.226;2023-07-13T01:05:21;21.40;81.70
51739;DHT22;37815;52.692;6.226;2023-07-13T01:10:23;21.40;81.20
51739;DHT22;37815;52.692;6.226;2023-07-13T01:15:43;21.30;81.30
51739;DHT22;37815;52.692;6.226;2023-07-13T01:20:52;21.30;81.40
51739;DHT22;37815;52.692;6.226;2023-07-13T01:25:53;21.30;81.40
51739;DHT22;37815;52.692;6.226;2023-07-13T01:30:57;21.30;81.40
51739;DHT22;37815;52.692;6.226;2023-07-13T01:35:58;21.30;81.50
51739;DHT22;37815;52.692;6.226;2023-07-13T01:40:59;21.20;81.50
51739;DHT22;37815;52.692;6.226;2023-07-13T01:46:00;21.20;81.70
51739;DHT22;37815;52.692;6.226;2023-07-13T01:51:00;21.20;81.70
51739;DHT22;37815;52.692;6.226;2023-07-13T01:56:01;21.20;81.80
51739;DHT22;37815;52.692;6.226;2023-07-13T02:01:02;21.10;81.80
51739;DHT22;37815;52.692;6.226;2023-07-13T02:06:03;21.10;81.90
51739;DHT22;37815;52.692;6.226;2023-07-13T02:11:04;21.10;82.00
51739;DHT22;37815;52.692;6.226;2023-07-13T02:16:04;21.10;82.00
51739;DHT22;37815;52.692;6.226;2023-07-13T02:21:05;21.10;82.10
51739;DHT22;37815;52.692;6.226;2023-07-13T02:26:06;21.00;82.10
51739;DHT22;37815;52.692;6.226;2023-07-13T02:31:09;21.00;82.10
51739;DHT22;37815;52.692;6.226;2023-07-13T02:36:11;21.00;82.20
51739;DHT22;37815;52.692;6.226;2023-07-13T02:41:12;21.00;82.20
51739;DHT22;37815;52.692;6.226;2023-07-13T02:46:13;20.90;82.20
51739;DHT22;37815;52.692;6.226;2023-07-13T02:51:13;20.90;82.20
51739;DHT22;37815;52.692;6.226;2023-07-13T02:56:14;20.90;82.20
51739;DHT22;37815;52.692;6.226;2023-07-13T03:01:15;20.90;82.30
51739;DHT22;37815;52.692;6.226;2023-07-13T03:06:19;20.90;82.30
51739;DHT22;37815;52.692;6.226;2023-07-13T03:11:20;20.80;82.30
51739;DHT22;37815;52.692;6.226;2023-07-13T03:16:21;20.80;82.30
51739;DHT22;37815;52.692;6.226;2023-07-13T03:21:22;20.80;82.40
51739;DHT22;37815;52.692;6.226;2023-07-13T03:26:22;20.80;83.00
51739;DHT22;37815;52.692;6.226;2023-07-13T03:31:26;20.80;82.50
51739;DHT22;37815;52.692;6.226;2023-07-13T03:36:29;20.80;82.60
51739;DHT22;37815;52.692;6.226;2023-07-13T03:41:30;20.70;82.60
51739;DHT22;37815;52.692;6.226;2023-07-13T03:46:32;20.70;82.60
51739;DHT22;37815;52.692;6.226;2023-07-13T03:51:34;20.70;82.70
51739;DHT22;37815;52.692;6.226;2023-07-13T03:56:34;20.70;82.70
51739;DHT22;37815;52.692;6.226;2023-07-13T04:01:35;20.60;82.70
51739;DHT22;37815;52.692;6.226;2023-07-13T04:06:37;20.60;82.80
51739;DHT22;37815;52.692;6.226;2023-07-13T04:11:38;20.60;82.90
51739;DHT22;37815;52.692;6.226;2023-07-13T04:16:38;20.60;82.90
51739;DHT22;37815;52.692;6.226;2023-07-13T04:21:39;20.60;82.90
51739;DHT22;37815;52.692;6.226;2023-07-13T04:26:40;20.60;82.90
51739;DHT22;37815;52.692;6.226;2023-07-13T04:31:40;20.50;82.90
51739;DHT22;37815;52.692;6.226;2023-07-13T04:36:41;20.50;83.00
51739;DHT22;37815;52.692;6.226;2023-07-13T04:41:42;20.50;83.00
51739;DHT22;37815;52.692;6.226;2023-07-13T04:46:42;20.50;83.10
51739;DHT22;37815;52.692;6.226;2023-07-13T04:51:43;20.50;83.10
51739;DHT22;37815;52.692;6.226;2023-07-13T04:56:44;20.50;83.10
51739;DHT22;37815;52.692;6.226;2023-07-13T05:01:44;20.50;83.10
51739;DHT22;37815;52.692;6.226;2023-07-13T05:06:46;20.50;83.20
51739;DHT22;37815;52.692;6.226;2023-07-13T05:11:46;20.50;83.20
51739;DHT22;37815;52.692;6.226;2023-07-13T05:16:47;20.50;83.20
51739;DHT22;37815;52.692;6.226;2023-07-13T05:21:47;20.40;83.20
51739;DHT22;37815;52.692;6.226;2023-07-13T05:26:48;20.40;83.20
51739;DHT22;37815;52.692;6.226;2023-07-13T05:31:49;20.40;83.20
51739;DHT22;37815;52.692;6.226;2023-07-13T05:36:50;20.40;83.20
51739;DHT22;37815;52.692;6.226;2023-07-13T05:41:51;20.40;83.40
51739;DHT22;37815;52.692;6.226;2023-07-13T05:46:52;20.40;83.40
51739;DHT22;37815;52.692;6.226;2023-07-13T05:51:53;20.40;83.40
51739;DHT22;37815;52.692;6.226;2023-07-13T05:56:53;20.40;83.40
51739;DHT22;37815;52.692;6.226;2023-07-13T06:01:54;20.40;83.50
51739;DHT22;37815;52.692;6.226;2023-07-13T06:06:55;20.40;83.50
51739;DHT22;37815;52.692;6.226;2023-07-13T06:11:55;20.40;83.50
51739;DHT22;37815;52.692;6.226;2023-07-13T06:16:56;20.40;83.50
51739;DHT22;37815;52.692;6.226;2023-07-13T06:21:57;20.40;83.60
51739;DHT22;37815;52.692;6.226;2023-07-13T06:26:58;20.40;83.60
51739;DHT22;37815;52.692;6.226;2023-07-13T06:31:59;20.40;83.60
51739;DHT22;37815;52.692;6.226;2023-07-13T06:37:00;20.40;83.60
51739;DHT22;37815;52.692;6.226;2023-07-13T06:42:00;20.50;83.70
51739;DHT22;37815;52.692;6.226;2023-07-13T06:47:01;20.50;83.70
51739;DHT22;37815;52.692;6.226;2023-07-13T06:52:02;20.30;83.60
51739;DHT22;37815;52.692;6.226;2023-07-13T06:57:03;20.50;83.80
51739;DHT22;37815;52.692;6.226;2023-07-13T07:02:04;20.50;83.80
51739;DHT22;37815;52.692;6.226;2023-07-13T07:07:05;20.50;83.90
51739;DHT22;37815;52.692;6.226;2023-07-13T07:12:06;20.50;83.90
51739;DHT22;37815;52.692;6.226;2023-07-13T07:17:07;20.50;83.90
51739;DHT22;37815;52.692;6.226;2023-07-13T07:22:07;20.50;84.00
51739;DHT22;37815;52.692;6.226;2023-07-13T07:27:08;20.50;84.00
51739;DHT22;37815;52.692;6.226;2023-07-13T07:32:09;20.60;84.10
51739;DHT22;37815;52.692;6.226;2023-07-13T07:37:12;20.60;84.10
51739;DHT22;37815;52.692;6.226;2023-07-13T07:42:13;20.60;84.10
51739;DHT22;37815;52.692;6.226;2023-07-13T07:47:14;20.60;84.00
51739;DHT22;37815;52.692;6.226;2023-07-13T07:52:15;20.70;84.10
51739;DHT22;37815;52.692;6.226;2023-07-13T07:57:16;20.70;84.00
51739;DHT22;37815;52.692;6.226;2023-07-13T08:02:17;20.80;83.90
51739;DHT22;37815;52.692;6.226;2023-07-13T08:07:17;20.80;84.00
51739;DHT22;37815;52.692;6.226;2023-07-13T08:12:18;20.80;84.40
51739;DHT22;37815;52.692;6.226;2023-07-13T08:17:22;20.80;84.60
51739;DHT22;37815;52.692;6.226;2023-07-13T08:22:23;20.80;85.10
51739;DHT22;37815;52.692;6.226;2023-07-13T08:27:24;20.80;85.20
51739;DHT22;37815;52.692;6.226;2023-07-13T08:32:25;20.80;85.40
51739;DHT22;37815;52.692;6.226;2023-07-13T08:37:26;20.80;86.30
51739;DHT22;37815;52.692;6.226;2023-07-13T08:47:28;20.70;86.10
51739;DHT22;37815;52.692;6.226;2023-07-13T08:52:39;20.50;86.60
51739;DHT22;37815;52.692;6.226;2023-07-13T08:57:42;20.40;87.30
51739;DHT22;37815;52.692;6.226;2023-07-13T09:02:56;20.30;87.40
51739;DHT22;37815;52.692;6.226;2023-07-13T09:13:27;20.30;87.40
51739;DHT22;37815;52.692;6.226;2023-07-13T09:18:40;20.30;87.60
51739;DHT22;37815;52.692;6.226;2023-07-13T09:23:44;20.30;87.50
51739;DHT22;37815;52.692;6.226;2023-07-13T09:28:47;20.30;87.30
51739;DHT22;37815;52.692;6.226;2023-07-13T09:33:48;20.30;87.30
51739;DHT22;37815;52.692;6.226;2023-07-13T09:39:02;20.30;87.20
51739;DHT22;37815;52.692;6.226;2023-07-13T09:44:12;20.30;87.30
51739;DHT22;37815;52.692;6.226;2023-07-13T09:49:13;20.40;87.30
51739;DHT22;37815;52.692;6.226;2023-07-13T09:54:23;20.30;87.30
51739;DHT22;37815;52.692;6.226;2023-07-13T09:59:32;20.30;88.70
51739;DHT22;37815;52.692;6.226;2023-07-13T10:04:34;20.20;90.00
51739;DHT22;37815;52.692;6.226;2023-07-13T10:09:35;20.20;90.80
51739;DHT22;37815;52.692;6.226;2023-07-13T10:14:35;20.20;91.30
51739;DHT22;37815;52.692;6.226;2023-07-13T10:19:37;20.30;91.70
51739;DHT22;37815;52.692;6.226;2023-07-13T10:24:39;20.40;92.20
51739;DHT22;37815;52.692;6.226;2023-07-13T10:29:51;20.30;92.50
51739;DHT22;37815;52.692;6.226;2023-07-13T10:34:53;20.20;93.00
51739;DHT22;37815;52.692;6.226;2023-07-13T10:39:57;20.20;93.00
51739;DHT22;37815;52.692;6.226;2023-07-13T10:44:59;20.20;93.00
51739;DHT22;37815;52.692;6.226;2023-07-13T10:50:00;20.30;93.00
51739;DHT22;37815;52.692;6.226;2023-07-13T10:55:02;20.30;93.00
51739;DHT22;37815;52.692;6.226;2023-07-13T11:00:16;20.40;92.90
51739;DHT22;37815;52.692;6.226;2023-07-13T11:11:00;20.40;92.80
51739;DHT22;37815;52.692;6.226;2023-07-13T11:16:01;20.50;92.90
51739;DHT22;37815;52.692;6.226;2023-07-13T11:21:17;20.50;92.40
51739;DHT22;37815;52.692;6.226;2023-07-13T11:31:55;20.70;92.70
51739;DHT22;37815;52.692;6.226;2023-07-13T11:36:58;20.70;92.40
51739;DHT22;37815;52.692;6.226;2023-07-13T11:42:02;20.90;92.90
51739;DHT22;37815;52.692;6.226;2023-07-13T11:47:29;21.00;93.20
51739;DHT22;37815;52.692;6.226;2023-07-13T11:52:34;21.10;93.60
51739;DHT22;37815;52.692;6.226;2023-07-13T11:57:42;21.20;92.70
51739;DHT22;37815;52.692;6.226;2023-07-13T12:02:47;21.20;92.80
51739;DHT22;37815;52.692;6.226;2023-07-13T12:07:50;21.30;92.60
51739;DHT22;37815;52.692;6.226;2023-07-13T12:12:57;21.50;92.20
51739;DHT22;37815;52.692;6.226;2023-07-13T12:17:58;21.70;91.80
51739;DHT22;37815;52.692;6.226;2023-07-13T12:22:59;21.80;91.40
51739;DHT22;37815;52.692;6.226;2023-07-13T12:28:20;21.80;90.70
51739;DHT22;37815;52.692;6.226;2023-07-13T12:33:27;21.70;88.90
51739;DHT22;37815;52.692;6.226;2023-07-13T12:38:30;21.90;89.40
51739;DHT22;37815;52.692;6.226;2023-07-13T12:43:35;22.00;88.50
51739;DHT22;37815;52.692;6.226;2023-07-13T12:48:41;22.10;87.10
51739;DHT22;37815;52.692;6.226;2023-07-13T12:53:49;22.20;86.40
51739;DHT22;37815;52.692;6.226;2023-07-13T12:59:02;22.30;86.70
51739;DHT22;37815;52.692;6.226;2023-07-13T13:04:03;22.50;86.20
51739;DHT22;37815;52.692;6.226;2023-07-13T13:09:12;22.60;85.70
51739;DHT22;37815;52.692;6.226;2023-07-13T13:14:14;22.70;84.80
51739;DHT22;37815;52.692;6.226;2023-07-13T13:19:17;22.80;85.30
51739;DHT22;37815;52.692;6.226;2023-07-13T13:24:21;23.00;84.90
51739;DHT22;37815;52.692;6.226;2023-07-13T13:29:23;22.90;84.20
51739;DHT22;37815;52.692;6.226;2023-07-13T13:34:27;22.60;85.40
51739;DHT22;37815;52.692;6.226;2023-07-13T13:39:36;22.70;84.60
51739;DHT22;37815;52.692;6.226;2023-07-13T13:44:37;22.80;83.60
51739;DHT22;37815;52.692;6.226;2023-07-13T13:49:38;22.70;83.90
51739;DHT22;37815;52.692;6.226;2023-07-13T13:54:39;22.90;83.20
51739;DHT22;37815;52.692;6.226;2023-07-13T13:59:39;23.20;83.00
51739;DHT22;37815;52.692;6.226;2023-07-13T14:04:40;23.30;82.30
51739;DHT22;37815;52.692;6.226;2023-07-13T14:09:41;23.50;81.90
51739;DHT22;37815;52.692;6.226;2023-07-13T14:14:42;23.70;81.60
51739;DHT22;37815;52.692;6.226;2023-07-13T14:19:43;24.00;80.90
51739;DHT22;37815;52.692;6.226;2023-07-13T14:24:44;24.10;80.80
51739;DHT22;37815;52.692;6.226;2023-07-13T14:29:44;24.10;81.30
51739;DHT22;37815;52.692;6.226;2023-07-13T14:34:45;24.20;80.40
51739;DHT22;37815;52.692;6.226;2023-07-13T14:39:52;24.40;80.40
51739;DHT22;37815;52.692;6.226;2023-07-13T14:44:53;24.10;80.00
51739;DHT22;37815;52.692;6.226;2023-07-13T14:49:55;23.80;80.60
51739;DHT22;37815;52.692;6.226;2023-07-13T14:54:56;23.70;80.70
51739;DHT22;37815;52.692;6.226;2023-07-13T14:59:56;23.70;81.20
51739;DHT22;37815;52.692;6.226;2023-07-13T15:04:57;23.70;80.60
51739;DHT22;37815;52.692;6.226;2023-07-13T15:09:58;23.50;81.00
51739;DHT22;37815;52.692;6.226;2023-07-13T15:15:00;23.60;80.70
51739;DHT22;37815;52.692;6.226;2023-07-13T15:20:04;23.40;81.10
51739;DHT22;37815;52.692;6.226;2023-07-13T15:25:19;23.10;81.40
51739;DHT22;37815;52.692;6.226;2023-07-13T15:30:20;23.30;81.30
51739;DHT22;37815;52.692;6.226;2023-07-13T15:35:25;23.50;80.80
51739;DHT22;37815;52.692;6.226;2023-07-13T15:40:26;23.50;80.00
51739;DHT22;37815;52.692;6.226;2023-07-13T15:45:27;23.60;80.30
51739;DHT22;37815;52.692;6.226;2023-07-13T15:50:40;23.60;79.90
51739;DHT22;37815;52.692;6.226;2023-07-13T15:55:42;23.60;79.00
51739;DHT22;37815;52.692;6.226;2023-07-13T16:00:43;23.40;79.90
51739;DHT22;37815;52.692;6.226;2023-07-13T16:05:45;23.40;80.10
51739;DHT22;37815;52.692;6.226;2023-07-13T16:10:47;23.30;79.90
51739;DHT22;37815;52.692;6.226;2023-07-13T16:15:48;23.20;79.90
51739;DHT22;37815;52.692;6.226;2023-07-13T16:20:49;23.10;79.80
51739;DHT22;37815;52.692;6.226;2023-07-13T16:25:49;23.10;80.20
51739;DHT22;37815;52.692;6.226;2023-07-13T16:30:52;23.00;80.20
51739;DHT22;37815;52.692;6.226;2023-07-13T16:35:52;22.90;80.00
51739;DHT22;37815;52.692;6.226;2023-07-13T16:40:53;22.80;80.20
51739;DHT22;37815;52.692;6.226;2023-07-13T16:45:57;22.70;80.30
51739;DHT22;37815;52.692;6.226;2023-07-13T16:51:01;22.70;80.40
51739;DHT22;37815;52.692;6.226;2023-07-13T16:56:15;22.60;80.20
51739;DHT22;37815;52.692;6.226;2023-07-13T17:01:17;22.50;79.80
51739;DHT22;37815;52.692;6.226;2023-07-13T17:06:23;22.40;80.50
51739;DHT22;37815;52.692;6.226;2023-07-13T17:11:24;22.40;80.20
51739;DHT22;37815;52.692;6.226;2023-07-13T17:16:26;22.40;80.30
51739;DHT22;37815;52.692;6.226;2023-07-13T17:21:28;22.30;80.50
51739;DHT22;37815;52.692;6.226;2023-07-13T17:26:29;22.20;81.00
51739;DHT22;37815;52.692;6.226;2023-07-13T17:31:30;22.20;81.50
51739;DHT22;37815;52.692;6.226;2023-07-13T17:36:31;22.10;81.60
51739;DHT22;37815;52.692;6.226;2023-07-13T17:41:34;22.00;81.80
51739;DHT22;37815;52.692;6.226;2023-07-13T17:46:35;22.00;81.90
51739;DHT22;37815;52.692;6.226;2023-07-13T17:51:35;21.80;82.30
51739;DHT22;37815;52.692;6.226;2023-07-13T17:56:37;21.80;82.50
51739;DHT22;37815;52.692;6.226;2023-07-13T18:01:38;21.80;82.50
51739;DHT22;37815;52.692;6.226;2023-07-13T18:06:43;21.80;82.80
51739;DHT22;37815;52.692;6.226;2023-07-13T18:11:53;21.60;82.90
51739;DHT22;37815;52.692;6.226;2023-07-13T18:16:56;21.50;83.30
51739;DHT22;37815;52.692;6.226;2023-07-13T18:21:58;21.50;83.70
51739;DHT22;37815;52.692;6.226;2023-07-13T18:26:59;21.40;84.10
51739;DHT22;37815;52.692;6.226;2023-07-13T18:32:01;21.40;84.60
51739;DHT22;37815;52.692;6.226;2023-07-13T18:37:08;21.40;84.90
51739;DHT22;37815;52.692;6.226;2023-07-13T18:42:10;21.30;85.10
51739;DHT22;37815;52.692;6.226;2023-07-13T18:47:20;21.20;85.30
51739;DHT22;37815;52.692;6.226;2023-07-13T18:52:24;21.10;85.40
51739;DHT22;37815;52.692;6.226;2023-07-13T18:57:25;21.10;85.60
51739;DHT22;37815;52.692;6.226;2023-07-13T19:02:25;21.10;86.70
51739;DHT22;37815;52.692;6.226;2023-07-13T19:07:26;21.10;86.50
51739;DHT22;37815;52.692;6.226;2023-07-13T19:12:29;21.00;86.80
51739;DHT22;37815;52.692;6.226;2023-07-13T19:17:31;20.90;87.30
51739;DHT22;37815;52.692;6.226;2023-07-13T19:22:32;20.80;87.60
51739;DHT22;37815;52.692;6.226;2023-07-13T19:27:33;20.80;87.80
51739;DHT22;37815;52.692;6.226;2023-07-13T19:32:33;20.70;88.10
51739;DHT22;37815;52.692;6.226;2023-07-13T19:37:35;20.60;88.20
51739;DHT22;37815;52.692;6.226;2023-07-13T19:42:36;20.50;88.60
51739;DHT22;37815;52.692;6.226;2023-07-13T19:47:37;20.50;88.90
51739;DHT22;37815;52.692;6.226;2023-07-13T19:52:46;20.40;89.20
51739;DHT22;37815;52.692;6.226;2023-07-13T19:57:51;20.30;89.60
51739;DHT22;37815;52.692;6.226;2023-07-13T20:02:52;20.30;89.80
51739;DHT22;37815;52.692;6.226;2023-07-13T20:07:57;20.20;89.80
51739;DHT22;37815;52.692;6.226;2023-07-13T20:12:59;20.10;90.00
51739;DHT22;37815;52.692;6.226;2023-07-13T20:18:00;20.10;90.20
51739;DHT22;37815;52.692;6.226;2023-07-13T20:23:04;20.10;90.60
51739;DHT22;37815;52.692;6.226;2023-07-13T20:28:09;20.00;90.40
51739;DHT22;37815;52.692;6.226;2023-07-13T20:33:13;19.90;90.60
51739;DHT22;37815;52.692;6.226;2023-07-13T20:38:16;19.90;90.80
51739;DHT22;37815;52.692;6.226;2023-07-13T20:43:19;19.80;91.00
51739;DHT22;37815;52.692;6.226;2023-07-13T20:53:53;19.70;91.50
51739;DHT22;37815;52.692;6.226;2023-07-13T20:58:54;19.50;91.50
51739;DHT22;37815;52.692;6.226;2023-07-13T21:04:04;19.50;91.70
51739;DHT22;37815;52.692;6.226;2023-07-13T21:09:19;19.50;91.90
51739;DHT22;37815;52.692;6.226;2023-07-13T21:14:20;19.40;92.20
51739;DHT22;37815;52.692;6.226;2023-07-13T21:19:24;19.30;92.10
51739;DHT22;37815;52.692;6.226;2023-07-13T21:24:25;19.40;92.10
51739;DHT22;37815;52.692;6.226;2023-07-13T21:29:25;19.50;91.90
51739;DHT22;37815;52.692;6.226;2023-07-13T21:34:26;19.60;91.80
51739;DHT22;37815;52.692;6.226;2023-07-13T21:39:27;19.70;91.60
51739;DHT22;37815;52.692;6.226;2023-07-13T21:44:30;19.90;91.50
51739;DHT22;37815;52.692;6.226;2023-07-13T21:49:31;19.90;91.40
51739;DHT22;37815;52.692;6.226;2023-07-13T21:54:31;20.00;91.30
51739;DHT22;37815;52.692;6.226;2023-07-13T21:59:32;20.00;91.30
51739;DHT22;37815;52.692;6.226;2023-07-13T22:04:39;20.10;91.20
51739;DHT22;37815;52.692;6.226;2023-07-13T22:09:40;20.10;91.20
51739;DHT22;37815;52.692;6.226;2023-07-13T22:14:41;20.10;91.10
51739;DHT22;37815;52.692;6.226;2023-07-13T22:19:42;20.10;91.10
51739;DHT22;37815;52.692;6.226;2023-07-13T22:24:43;20.10;91.00
51739;DHT22;37815;52.692;6.226;2023-07-13T22:29:43;20.20;91.00
51739;DHT22;37815;52.692;6.226;2023-07-13T22:34:49;20.20;90.90
51739;DHT22;37815;52.692;6.226;2023-07-13T22:39:50;20.20;90.90
51739;DHT22;37815;52.692;6.226;2023-07-13T22:44:50;20.20;90.90
51739;DHT22;37815;52.692;6.226;2023-07-13T22:49:51;20.20;90.90
51739;DHT22;37815;52.692;6.226;2023-07-13T22:54:52;20.20;90.80
51739;DHT22;37815;52.692;6.226;2023-07-13T22:59:53;20.20;90.80
51739;DHT22;37815;52.692;6.226;2023-07-13T23:04:54;20.20;90.80
51739;DHT22;37815;52.692;6.226;2023-07-13T23:09:54;20.20;90.80
51739;DHT22;37815;52.692;6.226;2023-07-13T23:14:55;20.20;90.70
51739;DHT22;37815;52.692;6.226;2023-07-13T23:19:56;20.20;90.70
51739;DHT22;37815;52.692;6.226;2023-07-13T23:24:56;20.20;90.70
51739;DHT22;37815;52.692;6.226;2023-07-13T23:29:57;20.20;90.70
51739;DHT22;37815;52.692;6.226;2023-07-13T23:34:58;20.20;90.70
51739;DHT22;37815;52.692;6.226;2023-07-13T23:39:58;20.10;90.70
51739;DHT22;37815;52.692;6.226;2023-07-13T23:44:59;20.10;90.70
51739;DHT22;37815;52.692;6.226;2023-07-13T23:50:01;20.10;90.70
51739;DHT22;37815;52.692;6.226;2023-07-13T23:55:15;20.10;90.60
